Marianne — VRFM5 — position and weather

sailwx.info

Track history (hours):
 
Tides and Currents Weather Stations Pressure Air Temp Water Temp Dewpoint Dewpoint Depression Visibility Wind Speed Wind Dir Waves Ship Positions

Marianne

Last reported at 2015-Sep-01 14:28 UTC. Time now 2015-Sep-03 02:37 UTC.
Position N 58°53' W 002°14'.

Length 97 m; draft 5.5 m.

Type: Ship (hazmat cat B). MMSI: 477560836.

Date/timePositionNaut miles runAvg speedWind from/ knotsBaromVisibWave heightAir tempDewpointWater temp
2015-Sep-01 14:28N 58°53' W 002°14'1211.6
2015-Sep-01 13:29N 58°47' W 002°33'1011.2
2015-Sep-01 12:33N 58°43' W 002°51'1514.6
2015-Sep-01 11:34N 58°43' W 003°19'1514.7
2015-Sep-01 10:33N 58°43' W 003°47'1413.9
2015-Sep-01 09:33N 58°43' W 004°14'3712.1
2015-Sep-01 06:29N 58°28' W 005°19'2512.7
2015-Sep-01 04:33N 58°07' W 005°44'15211.7
2015-Aug-31 15:33N 55°40' W 006°54'1616.3
2015-Aug-31 14:33N 55°30' W 006°30'1515.2
2015-Aug-31 13:33N 55°25' W 006°05'1413.6
2015-Aug-31 12:33N 55°15' W 005°50'1413.6
2015-Aug-31 11:33N 55°02' W 005°41'1212.3
2015-Aug-31 10:33N 54°50' W 005°34'1110.8
2015-Aug-31 09:33N 54°42' W 005°45'6 0.3
2015-Aug-30 08:22N 54°37' W 005°53'3 4.1
2015-Aug-30 07:33N 54°40' W 005°50'9 8.9
2015-Aug-30 06:33N 54°44' W 005°36'8 7.6
2015-Aug-30 05:33N 54°43' W 005°23'8 8.2
2015-Aug-30 04:33N 54°36' W 005°18'1413.8
2015-Aug-30 03:33N 54°22' W 005°13'1413.5
2015-Aug-30 02:33N 54°09' W 005°13'11814.6
2015-Aug-29 18:27N 52°11' W 005°27'  
2015-Aug-25 08:25N 54°09' W 005°13'1213.6
2015-Aug-25 07:33N 54°20' W 005°12'1413.5
2015-Aug-25 06:33N 54°34' W 005°17'1414.0
2015-Aug-25 05:33N 54°47' W 005°25'1514.8
2015-Aug-25 04:31N 54°59' W 005°41'1415.0
2015-Aug-25 03:33N 55°11' W 005°55'1514.9
2015-Aug-25 02:34N 55°22' W 006°13'1414.0
2015-Aug-25 01:33N 55°30' W 006°33'1413.7
2015-Aug-25 00:33N 55°39' W 006°52'1212.4
2015-Aug-24 23:33N 55°50' W 007°00'19410.7
2015-Aug-24 05:24N 58°43' W 004°18'1213.7
2015-Aug-24 04:33N 58°43' W 003°55'1313.2
2015-Aug-24 03:33N 58°43' W 003°30'1212.0
2015-Aug-24 02:33N 58°43' W 003°07'1110.9
2015-Aug-24 01:33N 58°43' W 002°46'14713.3
2015-Aug-23 14:33N 58°59' E 001°56'1313.3
2015-Aug-23 13:33N 58°57' E 002°22'1713.5
2015-Aug-23 12:16N 58°57' E 002°56'5414.1
2015-Aug-23 08:25N 58°57' E 004°41'1113.2
2015-Aug-23 07:33N 59°01' E 005°02'1414.3
2015-Aug-23 06:33N 59°07' E 005°26'9 8.7
2015-Aug-23 05:29N 59°16' E 005°30'  
Track history (hours):
 
Tides and Currents Weather Stations Pressure Air Temp Water Temp Dewpoint Dewpoint Depression Visibility Wind Speed Wind Dir Waves Ship Positions

Marianne

Last reported at 2015-Sep-01 14:28 UTC. Time now 2015-Sep-03 02:37 UTC.
Position N 58°53' W 002°14'.

Length 97 m; draft 5.5 m.

Type: Ship (hazmat cat B). MMSI: 477560836.

Date/timePositionNaut miles runAvg speedWind from/ knotsBaromVisibWave heightAir tempDewpointWater temp
2015-Sep-01 14:28N 58°53' W 002°14'1211.6
2015-Sep-01 13:29N 58°47' W 002°33'1011.2
2015-Sep-01 12:33N 58°43' W 002°51'1514.6
2015-Sep-01 11:34N 58°43' W 003°19'1514.7
2015-Sep-01 10:33N 58°43' W 003°47'1413.9
2015-Sep-01 09:33N 58°43' W 004°14'3712.1
2015-Sep-01 06:29N 58°28' W 005°19'2512.7
2015-Sep-01 04:33N 58°07' W 005°44'15211.7
2015-Aug-31 15:33N 55°40' W 006°54'1616.3
2015-Aug-31 14:33N 55°30' W 006°30'1515.2
2015-Aug-31 13:33N 55°25' W 006°05'1413.6
2015-Aug-31 12:33N 55°15' W 005°50'1413.6
2015-Aug-31 11:33N 55°02' W 005°41'1212.3
2015-Aug-31 10:33N 54°50' W 005°34'1110.8
2015-Aug-31 09:33N 54°42' W 005°45'6 0.3
2015-Aug-30 08:22N 54°37' W 005°53'3 4.1
2015-Aug-30 07:33N 54°40' W 005°50'9 8.9
2015-Aug-30 06:33N 54°44' W 005°36'8 7.6
2015-Aug-30 05:33N 54°43' W 005°23'8 8.2
2015-Aug-30 04:33N 54°36' W 005°18'1413.8
2015-Aug-30 03:33N 54°22' W 005°13'1413.5
2015-Aug-30 02:33N 54°09' W 005°13'11814.6
2015-Aug-29 18:27N 52°11' W 005°27'  
2015-Aug-25 08:25N 54°09' W 005°13'1213.6
2015-Aug-25 07:33N 54°20' W 005°12'1413.5
2015-Aug-25 06:33N 54°34' W 005°17'1414.0
2015-Aug-25 05:33N 54°47' W 005°25'1514.8
2015-Aug-25 04:31N 54°59' W 005°41'1415.0
2015-Aug-25 03:33N 55°11' W 005°55'1514.9
2015-Aug-25 02:34N 55°22' W 006°13'1414.0
2015-Aug-25 01:33N 55°30' W 006°33'1413.7
2015-Aug-25 00:33N 55°39' W 006°52'1212.4
2015-Aug-24 23:33N 55°50' W 007°00'19410.7
2015-Aug-24 05:24N 58°43' W 004°18'1213.7
2015-Aug-24 04:33N 58°43' W 003°55'1313.2
2015-Aug-24 03:33N 58°43' W 003°30'1212.0
2015-Aug-24 02:33N 58°43' W 003°07'1110.9
2015-Aug-24 01:33N 58°43' W 002°46'14713.3
2015-Aug-23 14:33N 58°59' E 001°56'1313.3
2015-Aug-23 13:33N 58°57' E 002°22'1713.5
2015-Aug-23 12:16N 58°57' E 002°56'5414.1
2015-Aug-23 08:25N 58°57' E 004°41'1113.2
2015-Aug-23 07:33N 59°01' E 005°02'1414.3
2015-Aug-23 06:33N 59°07' E 005°26'9 8.7
2015-Aug-23 05:29N 59°16' E 005°30'  

Dump ship's entire track history